createdAt,value
2022-10-03T00:01:39.204Z,28.67
2022-10-03T00:04:23.020Z,29.08
2022-10-03T00:07:02.640Z,29.67
2022-10-03T00:09:47.265Z,29.77
2022-10-03T00:12:37.634Z,27.80
2022-10-03T00:15:12.782Z,30.77
2022-10-03T00:17:51.989Z,35.65
2022-10-03T00:20:49.670Z,37.90
2022-10-03T00:23:25.292Z,35.28
2022-10-03T00:26:22.270Z,35.08
2022-10-03T00:29:04.022Z,35.70
2022-10-03T00:31:44.159Z,35.60
2022-10-03T00:34:25.016Z,39.00
2022-10-03T00:37:09.563Z,41.67
2022-10-03T00:39:55.342Z,40.95
2022-10-03T00:42:53.126Z,43.60
2022-10-03T00:45:51.919Z,46.50
2022-10-03T00:48:58.691Z,47.77
2022-10-03T00:51:35.199Z,45.10
2022-10-03T00:54:26.771Z,46.23
2022-10-03T00:57:10.186Z,45.63
2022-10-03T01:00:08.582Z,45.37
2022-10-03T01:03:01.485Z,45.60
2022-10-03T01:05:40.006Z,44.20
2022-10-03T01:08:29.025Z,42.30
2022-10-03T01:11:07.219Z,42.13
2022-10-03T01:13:47.318Z,43.03
2022-10-03T01:16:22.435Z,42.70
2022-10-03T01:19:03.296Z,42.13
2022-10-03T01:21:41.358Z,41.27
2022-10-03T01:24:34.476Z,38.97
2022-10-03T01:27:05.941Z,38.03
2022-10-03T01:30:03.440Z,37.03
2022-10-03T01:32:38.797Z,36.67
2022-10-03T01:35:25.384Z,37.03
2022-10-03T01:38:00.704Z,35.00
2022-10-03T01:40:35.062Z,33.40
2022-10-03T01:43:15.703Z,31.47
2022-10-03T01:45:56.454Z,30.37
2022-10-03T01:48:35.226Z,29.43
2022-10-03T01:51:11.691Z,28.53
2022-10-03T01:53:51.453Z,27.10
2022-10-03T01:56:28.414Z,28.03
2022-10-03T01:59:04.038Z,24.80
2022-10-03T02:01:46.434Z,25.57
2022-10-03T02:04:21.797Z,25.27
2022-10-03T02:07:00.742Z,25.00
2022-10-03T02:09:36.523Z,25.63
2022-10-03T02:12:14.443Z,24.20
2022-10-03T02:14:53.097Z,22.33
2022-10-03T02:17:30.775Z,23.50
2022-10-03T02:20:15.378Z,22.00
2022-10-03T02:22:46.535Z,22.10
2022-10-03T02:25:25.157Z,20.87
2022-10-03T02:28:35.239Z,20.73
2022-10-03T02:31:32.415Z,20.93
2022-10-03T02:34:25.860Z,21.90
2022-10-03T02:37:26.268Z,21.67
2022-10-03T02:40:33.576Z,22.33
2022-10-03T02:43:28.939Z,23.10
2022-10-03T02:46:28.143Z,24.03
2022-10-03T02:49:18.936Z,24.37
2022-10-03T02:52:19.984Z,25.67
2022-10-03T02:54:58.104Z,25.30
2022-10-03T02:57:54.689Z,23.63
2022-10-03T03:00:23.887Z,25.47
2022-10-03T03:03:27.797Z,25.73
2022-10-03T03:06:29.281Z,24.87
2022-10-03T03:09:29.630Z,31.50
2022-10-03T03:12:30.008Z,31.93
2022-10-03T03:15:44.266Z,33.17
2022-10-03T03:18:25.897Z,34.13
2022-10-03T03:21:11.783Z,34.70
2022-10-03T03:24:00.443Z,33.27
2022-10-03T03:26:55.651Z,34.33
2022-10-03T03:29:36.416Z,34.53
2022-10-03T03:32:15.223Z,37.87
2022-10-03T03:34:55.593Z,38.97
2022-10-03T03:37:31.080Z,38.83
2022-10-03T03:40:15.588Z,38.93
2022-10-03T03:43:06.062Z,36.23
2022-10-03T03:46:00.390Z,38.07
2022-10-03T03:48:44.380Z,39.03
2022-10-03T03:51:23.571Z,41.20
2022-10-03T03:54:19.604Z,39.77
2022-10-03T03:57:02.981Z,41.30
2022-10-03T03:59:58.122Z,39.40
2022-10-03T04:02:35.349Z,42.93
2022-10-03T04:05:18.560Z,41.97
2022-10-03T04:08:12.079Z,42.80
2022-10-03T04:10:54.522Z,42.63
2022-10-03T04:13:37.004Z,42.53
2022-10-03T04:16:54.403Z,42.60
2022-10-03T04:19:33.827Z,41.33
2022-10-03T04:22:30.070Z,44.33
2022-10-03T04:25:18.195Z,40.03
2022-10-03T04:28:05.823Z,41.20
2022-10-03T04:30:41.289Z,40.50
2022-10-03T04:33:31.778Z,41.03
2022-10-03T04:36:38.594Z,41.40
2022-10-03T04:39:16.322Z,42.23
2022-10-03T04:41:53.096Z,40.63
2022-10-03T04:44:35.080Z,41.97
2022-10-03T04:47:09.694Z,40.70
2022-10-03T04:49:44.806Z,43.53
2022-10-03T04:52:23.153Z,41.27
2022-10-03T04:55:02.543Z,41.73
2022-10-03T04:57:38.964Z,39.07
2022-10-03T05:00:23.574Z,40.37
2022-10-03T05:03:00.239Z,39.27
2022-10-03T05:05:43.300Z,40.70
2022-10-03T05:08:24.264Z,40.03
2022-10-03T05:11:16.647Z,39.87
2022-10-03T05:13:55.020Z,39.00
2022-10-03T05:16:33.449Z,38.07
2022-10-03T05:19:20.033Z,38.13
2022-10-03T05:21:57.083Z,37.90
2022-10-03T05:24:34.526Z,37.57
2022-10-03T05:27:20.971Z,37.90
2022-10-03T05:29:57.286Z,37.43
2022-10-03T05:32:32.055Z,36.93
2022-10-03T05:35:32.195Z,37.83
2022-10-03T05:38:33.096Z,37.37
2022-10-03T05:41:05.763Z,38.97
2022-10-03T05:43:50.042Z,39.10
2022-10-03T05:46:28.539Z,38.03
2022-10-03T05:49:17.514Z,35.73
2022-10-03T05:52:12.609Z,34.57
2022-10-03T05:55:05.171Z,32.87
2022-10-03T05:57:58.423Z,35.23
2022-10-03T06:00:35.982Z,36.43
2022-10-03T06:03:27.321Z,35.07
2022-10-03T06:06:09.117Z,36.23
2022-10-03T06:09:16.907Z,36.37
2022-10-03T06:12:06.314Z,34.90
2022-10-03T06:14:58.081Z,35.87
2022-10-03T06:17:43.152Z,35.50
2022-10-03T06:20:37.482Z,34.33
2022-10-03T06:23:44.908Z,33.77
2022-10-03T06:26:44.087Z,32.53
2022-10-03T06:29:43.962Z,31.20
2022-10-03T06:32:59.983Z,31.47
2022-10-03T06:35:55.825Z,27.83
2022-10-03T06:38:53.641Z,23.40
2022-10-03T06:41:55.222Z,20.00
2022-10-03T06:44:39.343Z,20.10
2022-10-03T06:47:23.435Z,18.83
2022-10-03T06:50:29.346Z,19.87
2022-10-03T06:53:21.649Z,19.00
2022-10-03T06:56:07.034Z,17.93
2022-10-03T06:58:59.349Z,17.37
2022-10-03T07:02:12.989Z,14.67
2022-10-03T07:05:21.538Z,18.37
2022-10-03T07:08:28.546Z,19.80
2022-10-03T07:11:18.409Z,18.00
2022-10-03T07:14:37.048Z,18.17
2022-10-03T07:17:28.224Z,15.90
2022-10-03T07:20:27.332Z,15.37
2022-10-03T07:23:44.571Z,13.17
2022-10-03T07:26:46.317Z,12.83
2022-10-03T07:29:23.534Z,12.50
2022-10-03T07:32:05.377Z,13.97
2022-10-03T07:35:18.495Z,13.20
2022-10-03T07:38:34.943Z,12.43
2022-10-03T07:41:32.536Z,10.97
2022-10-03T07:44:36.917Z,11.43
2022-10-03T07:48:02.102Z,13.17
2022-10-03T07:51:06.967Z,12.07
2022-10-03T07:54:04.060Z,12.63
2022-10-03T07:56:59.479Z,12.82
2022-10-03T07:59:54.183Z,11.65
2022-10-03T08:02:42.487Z,13.10
2022-10-03T08:05:26.312Z,11.23
2022-10-03T08:08:33.651Z,9.98
2022-10-03T08:11:26.009Z,10.80
2022-10-03T08:14:11.573Z,10.30
2022-10-03T08:17:11.278Z,9.50
2022-10-03T08:20:14.273Z,9.88
2022-10-03T08:23:01.333Z,9.13
2022-10-03T08:25:36.183Z,10.30
2022-10-03T08:28:55.008Z,12.50
2022-10-03T08:32:12.601Z,13.73
2022-10-03T08:35:06.820Z,14.32
2022-10-03T08:38:23.833Z,13.80
2022-10-03T08:41:51.144Z,12.23
2022-10-03T08:44:44.924Z,10.05
2022-10-03T08:47:46.930Z,9.80
2022-10-03T08:50:41.129Z,8.43
2022-10-03T08:53:50.776Z,8.77
2022-10-03T08:56:23.242Z,8.30
2022-10-03T08:59:33.301Z,7.88
2022-10-03T09:02:42.227Z,8.05
2022-10-03T09:05:39.365Z,6.90
2022-10-03T09:08:58.534Z,7.53
2022-10-03T09:11:49.985Z,7.47
2022-10-03T09:14:51.654Z,6.30
2022-10-03T09:17:56.943Z,6.22
2022-10-03T09:21:10.190Z,6.50
2022-10-03T09:24:15.662Z,6.00
2022-10-03T09:27:20.790Z,5.53
2022-10-03T09:30:24.289Z,5.32
2022-10-03T09:33:40.286Z,4.93
2022-10-03T09:36:25.141Z,5.47
2022-10-03T09:39:30.051Z,5.35
2022-10-03T09:42:31.880Z,4.93
2022-10-03T09:45:34.218Z,5.75
2022-10-03T09:48:30.118Z,5.32
2022-10-03T09:51:13.015Z,5.13
2022-10-03T09:54:22.351Z,5.10
2022-10-03T09:57:23.041Z,4.93
2022-10-03T10:00:13.377Z,4.72
2022-10-03T10:03:21.798Z,4.47
2022-10-03T10:06:31.788Z,4.60
2022-10-03T10:09:41.110Z,4.82
2022-10-03T10:12:42.659Z,4.80
2022-10-03T10:15:47.347Z,4.82
2022-10-03T10:18:47.911Z,4.70
2022-10-03T10:21:46.087Z,4.68
2022-10-03T10:25:14.319Z,4.50
2022-10-03T10:28:24.285Z,4.82
2022-10-03T10:31:44.080Z,4.47
2022-10-03T10:34:50.623Z,4.80
2022-10-03T10:38:09.701Z,4.60
2022-10-03T10:41:11.516Z,4.70
2022-10-03T10:44:22.219Z,5.00
2022-10-03T10:47:13.879Z,4.55
2022-10-03T10:50:14.772Z,4.22
2022-10-03T10:53:25.734Z,4.72
2022-10-03T10:56:33.293Z,4.60
2022-10-03T11:00:00.785Z,4.90
2022-10-03T11:03:07.654Z,4.60
2022-10-03T11:06:02.220Z,4.38
2022-10-03T11:09:10.516Z,4.40
2022-10-03T11:12:08.291Z,5.00
2022-10-03T11:15:25.806Z,4.35
2022-10-03T11:18:43.143Z,4.20
2022-10-03T11:21:44.683Z,4.20
2022-10-03T11:24:52.383Z,4.47
2022-10-03T11:28:04.971Z,4.05
2022-10-03T11:31:14.086Z,4.30
2022-10-03T11:34:37.211Z,4.20
2022-10-03T11:37:13.848Z,4.40
2022-10-03T11:39:48.111Z,4.25
2022-10-03T11:42:27.799Z,4.45
2022-10-03T11:45:01.074Z,4.15
2022-10-03T11:47:55.143Z,4.57
2022-10-03T11:50:39.310Z,4.18
2022-10-03T11:53:14.986Z,4.40
2022-10-03T11:55:51.548Z,4.40
2022-10-03T11:58:36.727Z,4.55
2022-10-03T12:01:26.212Z,4.43
2022-10-03T12:04:04.927Z,4.75
2022-10-03T12:07:17.778Z,4.20
2022-10-03T12:09:57.129Z,4.88
2022-10-03T12:12:36.081Z,4.43
2022-10-03T12:15:18.490Z,5.07
2022-10-03T12:17:55.502Z,4.95
2022-10-03T12:20:34.472Z,4.53
2022-10-03T12:23:10.562Z,5.05
2022-10-03T12:25:43.222Z,4.60
2022-10-03T12:28:20.629Z,5.20
2022-10-03T12:30:55.288Z,4.80
2022-10-03T12:33:46.993Z,4.93
2022-10-03T12:36:21.221Z,4.75
2022-10-03T12:39:02.107Z,4.50
2022-10-03T12:41:54.426Z,4.32
2022-10-03T12:44:37.235Z,4.50
2022-10-03T12:47:32.313Z,4.55
2022-10-03T12:50:24.162Z,4.30
2022-10-03T12:53:06.431Z,4.65
2022-10-03T12:55:39.288Z,4.50
2022-10-03T12:58:18.335Z,4.70
2022-10-03T13:00:57.383Z,4.82
2022-10-03T13:03:38.584Z,4.28
2022-10-03T13:06:51.011Z,4.45
2022-10-03T13:09:28.623Z,4.22
2022-10-03T13:12:07.475Z,4.38
2022-10-03T13:15:03.471Z,4.50
2022-10-03T13:17:42.050Z,4.70
2022-10-03T13:20:21.069Z,4.47
2022-10-03T13:22:58.500Z,5.15
2022-10-03T13:25:35.082Z,5.15
2022-10-03T13:28:15.064Z,5.35
2022-10-03T13:30:49.794Z,5.00
2022-10-03T13:33:21.075Z,5.07
2022-10-03T13:36:01.641Z,4.65
2022-10-03T13:39:02.949Z,4.75
2022-10-03T13:41:59.727Z,4.50
2022-10-03T13:44:38.854Z,4.53
2022-10-03T13:47:21.302Z,4.05
2022-10-03T13:49:54.484Z,4.65
2022-10-03T13:52:33.437Z,4.40
2022-10-03T13:55:26.701Z,4.57
2022-10-03T13:58:08.541Z,7.15
2022-10-03T14:00:49.036Z,14.23
2022-10-03T14:03:29.226Z,18.33
2022-10-03T14:06:07.471Z,16.65
2022-10-03T14:08:56.776Z,13.55
2022-10-03T14:11:30.382Z,11.05
2022-10-03T14:14:34.303Z,9.52
2022-10-03T14:17:10.236Z,7.78
2022-10-03T14:19:54.955Z,6.82
2022-10-03T14:22:45.080Z,5.85
2022-10-03T14:25:27.087Z,5.57
2022-10-03T14:27:57.856Z,5.15
2022-10-03T14:30:33.096Z,4.70
2022-10-03T14:33:15.016Z,4.80
2022-10-03T14:35:54.691Z,4.40
2022-10-03T14:39:02.353Z,4.28
2022-10-03T14:41:45.405Z,4.63
2022-10-03T14:44:18.404Z,4.63
2022-10-03T14:46:53.171Z,4.28
2022-10-03T14:49:52.272Z,4.80
2022-10-03T14:52:24.801Z,4.13
2022-10-03T14:54:56.634Z,4.00
2022-10-03T14:57:43.634Z,4.25
2022-10-03T15:00:28.085Z,4.88
2022-10-03T15:02:57.786Z,4.25
2022-10-03T15:05:35.373Z,4.35
2022-10-03T15:08:12.522Z,3.80
2022-10-03T15:10:40.834Z,4.03
2022-10-03T15:13:11.051Z,3.90
2022-10-03T15:15:41.788Z,3.97
2022-10-03T15:18:17.671Z,3.85
2022-10-03T15:20:49.205Z,3.72
2022-10-03T15:23:22.694Z,3.65
2022-10-03T15:25:54.806Z,3.88
2022-10-03T15:28:28.015Z,3.88
2022-10-03T15:30:59.336Z,3.72
2022-10-03T15:33:32.386Z,3.60
2022-10-03T15:36:07.723Z,3.70
2022-10-03T15:38:40.748Z,3.63
2022-10-03T15:41:12.780Z,3.70
2022-10-03T15:43:49.439Z,4.13
2022-10-03T15:46:30.537Z,3.78
2022-10-03T15:49:02.573Z,3.70
2022-10-03T15:51:32.912Z,3.92
2022-10-03T15:54:02.749Z,3.65
2022-10-03T15:56:35.250Z,4.00
2022-10-03T15:59:08.226Z,4.32
2022-10-03T16:01:40.760Z,3.85
2022-10-03T16:04:19.755Z,3.88
2022-10-03T16:06:57.731Z,3.60
2022-10-03T16:09:31.334Z,3.90
2022-10-03T16:12:13.535Z,3.95
2022-10-03T16:14:44.760Z,3.63
2022-10-03T16:17:19.157Z,3.70
2022-10-03T16:19:55.072Z,4.20
2022-10-03T16:22:29.993Z,3.90
2022-10-03T16:25:10.292Z,3.67
2022-10-03T16:27:46.310Z,3.75
2022-10-03T16:30:22.608Z,4.00
2022-10-03T16:32:56.771Z,4.00
2022-10-03T16:35:37.304Z,4.43
2022-10-03T16:38:10.280Z,4.00
2022-10-03T16:40:39.073Z,3.95
2022-10-03T16:43:11.546Z,3.85
2022-10-03T16:45:45.714Z,4.15
2022-10-03T16:48:37.985Z,3.85
2022-10-03T16:51:15.023Z,4.00
2022-10-03T16:53:45.443Z,4.22
2022-10-03T16:56:17.236Z,3.78
2022-10-03T16:58:51.691Z,3.90
2022-10-03T17:01:31.895Z,3.95
2022-10-03T17:04:16.933Z,3.80
2022-10-03T17:06:49.534Z,3.90
2022-10-03T17:09:37.033Z,4.03
2022-10-03T17:12:08.212Z,3.80
2022-10-03T17:14:41.994Z,4.38
2022-10-03T17:17:28.558Z,4.30
2022-10-03T17:20:04.357Z,4.18
2022-10-03T17:22:38.807Z,3.90
2022-10-03T17:25:29.086Z,4.18
2022-10-03T17:27:58.838Z,4.32
2022-10-03T17:30:34.918Z,4.18
2022-10-03T17:33:08.825Z,3.83
2022-10-03T17:35:43.799Z,4.40
2022-10-03T17:38:48.536Z,4.50
2022-10-03T17:41:18.601Z,4.32
2022-10-03T17:43:51.220Z,4.22
2022-10-03T17:46:24.551Z,4.25
2022-10-03T17:48:57.315Z,4.43
2022-10-03T17:51:37.156Z,4.10
2022-10-03T17:54:12.879Z,5.03
2022-10-03T17:56:46.246Z,4.82
2022-10-03T17:59:19.802Z,5.03
2022-10-03T18:01:53.273Z,5.10
2022-10-03T18:04:29.347Z,4.82
2022-10-03T18:06:59.467Z,4.47
2022-10-03T18:09:33.041Z,4.72
2022-10-03T18:12:16.865Z,4.65
2022-10-03T18:15:11.861Z,4.75
2022-10-03T18:17:59.820Z,5.22
2022-10-03T18:20:42.395Z,5.40
2022-10-03T18:23:36.676Z,5.38
2022-10-03T18:26:20.434Z,5.70
2022-10-03T18:28:55.942Z,4.85
2022-10-03T18:31:26.307Z,5.20
2022-10-03T18:33:58.182Z,5.30
2022-10-03T18:36:29.995Z,5.20
2022-10-03T18:39:00.910Z,5.63
2022-10-03T18:41:30.655Z,5.70
2022-10-03T18:44:01.776Z,6.35
2022-10-03T18:46:36.553Z,6.25
2022-10-03T18:49:34.887Z,6.18
2022-10-03T18:52:10.781Z,6.85
2022-10-03T18:54:51.514Z,7.22
2022-10-03T18:57:26.127Z,6.82
2022-10-03T19:00:01.319Z,6.57
2022-10-03T19:02:36.525Z,6.72
2022-10-03T19:05:13.095Z,7.28
2022-10-03T19:07:49.643Z,6.30
2022-10-03T19:10:31.694Z,7.00
2022-10-03T19:13:13.639Z,6.65
2022-10-03T19:16:05.205Z,6.57
2022-10-03T19:18:42.404Z,6.07
2022-10-03T19:21:18.658Z,6.90
2022-10-03T19:23:50.444Z,7.13
2022-10-03T19:26:25.374Z,6.68
2022-10-03T19:28:57.752Z,7.05
2022-10-03T19:31:30.652Z,7.20
2022-10-03T19:34:03.587Z,7.22
2022-10-03T19:36:35.906Z,6.88
2022-10-03T19:39:06.099Z,7.10
2022-10-03T19:41:39.673Z,6.80
2022-10-03T19:44:14.544Z,7.20
2022-10-03T19:46:56.279Z,7.38
2022-10-03T19:49:37.123Z,7.80
2022-10-03T19:52:26.736Z,7.45
2022-10-03T19:55:01.250Z,7.50
2022-10-03T19:57:40.165Z,7.15
2022-10-03T20:00:23.327Z,7.90
2022-10-03T20:02:57.586Z,8.10
2022-10-03T20:05:32.950Z,7.45
2022-10-03T20:08:08.624Z,7.53
2022-10-03T20:10:58.869Z,7.40
2022-10-03T20:13:27.261Z,6.97
2022-10-03T20:15:58.931Z,7.53
2022-10-03T20:18:33.531Z,7.05
2022-10-03T20:21:04.212Z,7.25
2022-10-03T20:23:35.922Z,6.97
2022-10-03T20:26:10.139Z,7.40
2022-10-03T20:28:58.751Z,7.32
2022-10-03T20:31:31.172Z,7.30
2022-10-03T20:34:05.852Z,7.32
2022-10-03T20:36:39.967Z,7.13
2022-10-03T20:39:15.383Z,7.43
2022-10-03T20:41:59.556Z,8.15
2022-10-03T20:44:47.545Z,8.23
2022-10-03T20:47:27.784Z,8.27
2022-10-03T20:50:00.412Z,8.32
2022-10-03T20:52:28.926Z,7.60
2022-10-03T20:55:00.720Z,7.90
2022-10-03T20:57:32.641Z,8.50
2022-10-03T21:00:08.838Z,8.57
2022-10-03T21:02:45.750Z,8.02
2022-10-03T21:05:21.883Z,7.88
2022-10-03T21:07:53.742Z,8.00
2022-10-03T21:10:29.941Z,7.85
2022-10-03T21:13:02.090Z,7.53
2022-10-03T21:15:40.627Z,7.53
2022-10-03T21:18:20.674Z,7.07
2022-10-03T21:20:51.622Z,7.00
2022-10-03T21:23:26.723Z,7.55
2022-10-03T21:25:58.795Z,8.57
2022-10-03T21:28:31.017Z,8.05
2022-10-03T21:31:25.160Z,8.07
2022-10-03T21:34:01.122Z,7.90
2022-10-03T21:36:35.841Z,7.50
2022-10-03T21:39:17.163Z,7.32
2022-10-03T21:41:57.731Z,7.38
2022-10-03T21:44:59.015Z,7.35
2022-10-03T21:47:37.172Z,7.88
2022-10-03T21:50:08.653Z,8.93
2022-10-03T21:52:54.016Z,7.80
2022-10-03T21:55:52.121Z,8.57
2022-10-03T21:58:39.734Z,8.85
2022-10-03T22:01:17.193Z,7.93
2022-10-03T22:03:52.362Z,8.20
2022-10-03T22:06:26.186Z,9.25
2022-10-03T22:08:55.201Z,9.18
2022-10-03T22:11:35.653Z,9.07
2022-10-03T22:14:18.181Z,9.32
2022-10-03T22:16:55.128Z,8.48
2022-10-03T22:19:29.243Z,7.90
2022-10-03T22:22:11.623Z,8.90
2022-10-03T22:25:00.193Z,9.18
2022-10-03T22:27:36.031Z,9.27
2022-10-03T22:30:08.131Z,9.25
2022-10-03T22:32:42.140Z,8.85
2022-10-03T22:35:29.409Z,9.50
2022-10-03T22:37:59.392Z,9.55
2022-10-03T22:40:28.834Z,9.75
2022-10-03T22:42:58.867Z,9.63
2022-10-03T22:45:30.943Z,11.73
2022-10-03T22:48:02.493Z,11.65
2022-10-03T22:50:34.816Z,11.35
2022-10-03T22:53:05.500Z,10.38
2022-10-03T22:55:34.103Z,10.70
2022-10-03T22:58:03.658Z,11.18
2022-10-03T23:00:35.710Z,9.65
2022-10-03T23:03:09.397Z,10.85
2022-10-03T23:06:02.906Z,10.80
2022-10-03T23:08:46.428Z,10.45
2022-10-03T23:11:20.464Z,10.38
2022-10-03T23:13:49.819Z,11.52
2022-10-03T23:16:37.823Z,10.13
2022-10-03T23:19:18.254Z,9.15
2022-10-03T23:21:48.200Z,8.68
2022-10-03T23:24:25.287Z,9.70
2022-10-03T23:27:30.351Z,9.40
2022-10-03T23:30:47.257Z,8.95
2022-10-03T23:33:40.436Z,11.55
2022-10-03T23:36:17.825Z,12.05
2022-10-03T23:39:01.437Z,13.18
2022-10-03T23:42:00.801Z,13.15
2022-10-03T23:44:40.344Z,13.65
2022-10-03T23:47:13.555Z,14.75
2022-10-03T23:49:44.347Z,15.88
2022-10-03T23:52:21.552Z,15.98
2022-10-03T23:54:50.859Z,14.65
2022-10-03T23:57:21.365Z,16.80
2022-10-03T23:59:50.634Z,17.83
